Time;durP1;ratioP1;P1;durP2;ratioP2;P2;SDS_P1;SDS_P2;PMS_P1;PMS_P2;Temp;Humidity;BMP_temperature;BMP_pressure;BME280_temperature;BME280_humidity;BME280_pressure;Samples;Min_cycle;Max_cycle;Signal;HPM_P1;HPM_P2
2021/05/16 00:02:06;;;;;;;4.60;4.10;;;;;;;;;;5073756;28;20557;-61
2021/05/16 00:04:33;;;;;;;2.92;2.65;;;;;;;;;;5073522;28;20668;-62
2021/05/16 00:07:00;;;;;;;5.20;3.80;;;;;;;;;;5073434;28;20224;-62
2021/05/16 00:09:28;;;;;;;5.40;4.20;;;;;;;;;;5072990;28;20482;-62
2021/05/16 00:11:55;;;;;;;3.78;3.42;;;;;;;;;;5072941;28;20485;-62
2021/05/16 00:14:22;;;;;;;4.38;4.05;;;;;;;;;;5073217;28;20258;-62
2021/05/16 00:16:49;;;;;;;3.28;2.97;;;;;;;;;;5073326;28;20573;-62
2021/05/16 00:19:15;;;;;;;4.30;3.50;;;;;;;;;;5072817;28;20196;-63
2021/05/16 00:21:43;;;;;;;4.63;4.22;;;;;;;;;;5072826;28;20454;-62
2021/05/16 00:24:10;;;;;;;3.33;3.03;;;;;;;;;;5075554;28;20204;-62
2021/05/16 00:26:37;;;;;;;3.10;2.80;;;;;;;;;;5077258;28;20200;-62
2021/05/16 00:29:04;;;;;;;4.25;3.38;;;;;;;;;;5076724;28;20228;-61
2021/05/16 00:31:31;;;;;;;3.53;3.22;;;;;;;;;;5076784;28;20723;-62
2021/05/16 00:33:57;;;;;;;3.78;3.38;;;;;;;;;;5077086;28;20205;-62
2021/05/16 00:36:24;;;;;;;3.05;2.85;;;;;;;;;;5077054;28;20615;-61
2021/05/16 00:38:52;;;;;;;3.50;3.20;;;;;;;;;;5077010;28;20203;-61
2021/05/16 00:41:19;;;;;;;3.85;3.10;;;;;;;;;;5076552;28;20319;-62
2021/05/16 00:43:45;;;;;;;3.67;3.28;;;;;;;;;;5076592;28;20201;-62
2021/05/16 00:46:12;;;;;;;3.30;2.90;;;;;;;;;;5076512;28;20672;-62
2021/05/16 00:48:39;;;;;;;3.72;3.42;;;;;;;;;;5076710;28;20270;-62
2021/05/16 00:51:06;;;;;;;5.63;3.35;;;;;;;;;;5076678;28;20221;-61
2021/05/16 00:53:33;;;;;;;3.28;2.63;;;;;;;;;;5076397;28;20594;-62
2021/05/16 00:56:01;;;;;;;3.80;3.20;;;;;;;;;;5076313;28;20686;-61
2021/05/16 00:58:28;;;;;;;3.83;3.40;;;;;;;;;;5076282;28;20197;-62
2021/05/16 01:00:55;;;;;;;3.67;2.75;;;;;;;;;;5076456;28;20225;-62
2021/05/16 01:03:23;;;;;;;3.40;2.88;;;;;;;;;;5076149;28;20204;-62
2021/05/16 01:05:50;;;;;;;4.18;2.80;;;;;;;;;;5076279;28;20212;-62
2021/05/16 01:08:17;;;;;;;2.95;2.65;;;;;;;;;;5076355;28;20213;-62
2021/05/16 01:10:44;;;;;;;3.10;2.90;;;;;;;;;;5076084;28;20236;-62
2021/05/16 01:13:12;;;;;;;3.08;2.78;;;;;;;;;;5076519;28;20635;-62
2021/05/16 01:15:40;;;;;;;3.05;2.55;;;;;;;;;;5076720;28;20296;-62
2021/05/16 01:18:06;;;;;;;6.30;3.10;;;;;;;;;;5076448;28;20212;-62
2021/05/16 01:20:34;;;;;;;2.88;2.67;;;;;;;;;;5076310;28;20459;-62
2021/05/16 01:23:04;;;;;;;4.28;2.75;;;;;;;;;;5076473;28;20212;-62
2021/05/16 01:25:32;;;;;;;2.50;2.30;;;;;;;;;;5076329;28;20205;-62
2021/05/16 01:27:58;;;;;;;2.45;2.25;;;;;;;;;;5076236;28;20566;-62
2021/05/16 01:30:26;;;;;;;2.73;2.53;;;;;;;;;;5075781;28;20700;-63
2021/05/16 01:32:53;;;;;;;2.60;2.40;;;;;;;;;;5075983;28;20470;-62
2021/05/16 01:35:20;;;;;;;3.40;3.10;;;;;;;;;;5076251;28;20450;-62
2021/05/16 01:37:47;;;;;;;3.47;2.80;;;;;;;;;;5078172;28;20204;-60
2021/05/16 01:40:16;;;;;;;3.38;3.10;;;;;;;;;;5076467;28;20467;-61
2021/05/16 01:42:47;;;;;;;3.57;2.57;;;;;;;;;;5076833;28;20204;-62
2021/05/16 01:45:15;;;;;;;3.50;2.70;;;;;;;;;;5075524;28;20445;-62
2021/05/16 01:47:41;;;;;;;6.07;3.00;;;;;;;;;;5076100;28;20243;-63
2021/05/16 01:50:09;;;;;;;4.00;2.80;;;;;;;;;;5075443;28;20485;-63
2021/05/16 01:52:36;;;;;;;3.13;2.80;;;;;;;;;;5076333;28;20444;-62
2021/05/16 01:55:04;;;;;;;3.27;2.97;;;;;;;;;;5075367;28;20208;-63
2021/05/16 01:57:31;;;;;;;3.07;2.83;;;;;;;;;;5075222;28;20447;-62
2021/05/16 01:59:58;;;;;;;3.10;2.80;;;;;;;;;;5075191;28;20456;-63
2021/05/16 02:02:25;;;;;;;3.00;2.72;;;;;;;;;;5075452;28;20482;-62
2021/05/16 02:04:52;;;;;;;5.83;2.80;;;;;;;;;;5076728;28;20578;-62
2021/05/16 02:07:19;;;;;;;4.07;2.50;;;;;;;;;;5076545;28;20447;-62
2021/05/16 02:09:47;;;;;;;2.80;2.60;;;;;;;;;;5076456;28;20536;-63
2021/05/16 02:12:17;;;;;;;2.87;2.67;;;;;;;;;;5075008;28;20455;-62
2021/05/16 02:14:45;;;;;;;4.10;2.70;;;;;;;;;;5075174;28;20451;-62
2021/05/16 02:17:12;;;;;;;2.90;2.70;;;;;;;;;;5075134;28;20892;-62
2021/05/16 02:19:39;;;;;;;3.47;2.70;;;;;;;;;;5074776;28;20963;-62
2021/05/16 02:22:06;;;;;;;4.50;2.60;;;;;;;;;;5075193;28;20500;-62
2021/05/16 02:24:33;;;;;;;3.33;3.07;;;;;;;;;;5075205;28;20454;-62
2021/05/16 02:27:00;;;;;;;3.40;2.70;;;;;;;;;;5075124;28;20451;-62
2021/05/16 02:29:27;;;;;;;2.70;2.50;;;;;;;;;;5074504;28;20486;-63
2021/05/16 02:31:55;;;;;;;3.03;2.83;;;;;;;;;;5074886;28;20446;-62
2021/05/16 02:34:21;;;;;;;4.90;2.73;;;;;;;;;;5074816;28;20219;-62
2021/05/16 02:36:48;;;;;;;3.10;2.80;;;;;;;;;;5074509;28;20497;-62
2021/05/16 02:39:15;;;;;;;3.10;2.90;;;;;;;;;;5074664;28;20439;-63
2021/05/16 02:41:42;;;;;;;3.20;2.77;;;;;;;;;;5074413;28;20205;-62
2021/05/16 02:44:09;;;;;;;4.00;3.28;;;;;;;;;;5074301;28;20943;-63
2021/05/16 02:46:37;;;;;;;3.50;3.20;;;;;;;;;;5073578;28;20255;-63
2021/05/16 02:49:05;;;;;;;4.53;3.07;;;;;;;;;;5074408;28;20483;-63
2021/05/16 02:51:31;;;;;;;4.20;3.80;;;;;;;;;;5074377;28;20478;-62
2021/05/16 02:53:58;;;;;;;3.60;3.30;;;;;;;;;;5074390;28;20208;-62
2021/05/16 02:56:25;;;;;;;3.85;3.40;;;;;;;;;;5074068;28;20962;-61
2021/05/16 02:58:52;;;;;;;3.60;2.97;;;;;;;;;;5074104;28;20205;-61
2021/05/16 03:01:18;;;;;;;3.72;3.42;;;;;;;;;;5073916;28;20267;-62
2021/05/16 03:03:45;;;;;;;4.97;3.50;;;;;;;;;;5074269;28;20253;-61
2021/05/16 03:06:13;;;;;;;5.97;3.60;;;;;;;;;;5074222;28;20209;-61
2021/05/16 03:08:39;;;;;;;3.90;3.60;;;;;;;;;;5073569;28;20220;-62
2021/05/16 03:11:06;;;;;;;4.27;3.87;;;;;;;;;;5072357;22;20694;-58
2021/05/16 03:13:33;;;;;;;7.10;3.95;;;;;;;;;;5034076;28;20449;-58
2021/05/16 03:16:00;;;;;;;10.23;3.30;;;;;;;;;;5034340;28;20206;-58
2021/05/16 03:18:27;;;;;;;4.25;3.33;;;;;;;;;;5034300;28;20202;-59
2021/05/16 03:20:53;;;;;;;5.03;3.30;;;;;;;;;;5033807;28;20706;-58
2021/05/16 03:23:21;;;;;;;4.28;3.70;;;;;;;;;;5033699;28;20206;-58
2021/05/16 03:25:48;;;;;;;6.35;3.45;;;;;;;;;;5034024;28;20252;-58
2021/05/16 03:28:15;;;;;;;6.07;3.97;;;;;;;;;;5033989;28;20222;-58
2021/05/16 03:30:42;;;;;;;4.93;3.50;;;;;;;;;;5034035;28;20226;-58
2021/05/16 03:33:08;;;;;;;3.70;3.38;;;;;;;;;;5033948;28;20202;-58
2021/05/16 03:35:35;;;;;;;6.15;3.88;;;;;;;;;;5033679;28;20622;-58
2021/05/16 03:38:02;;;;;;;4.70;3.47;;;;;;;;;;5033608;28;20202;-59
2021/05/16 03:40:30;;;;;;;3.80;3.37;;;;;;;;;;5033823;28;20461;-58
2021/05/16 03:42:56;;;;;;;3.78;3.38;;;;;;;;;;5033891;28;20444;-58
2021/05/16 03:45:23;;;;;;;5.87;3.57;;;;;;;;;;5033419;28;20209;-58
2021/05/16 03:47:50;;;;;;;3.63;3.10;;;;;;;;;;5033487;28;20453;-58
2021/05/16 03:50:17;;;;;;;7.90;3.67;;;;;;;;;;5033200;28;20252;-58
2021/05/16 03:52:43;;;;;;;4.05;3.75;;;;;;;;;;5033637;28;20444;-58
2021/05/16 03:55:11;;;;;;;4.30;3.87;;;;;;;;;;5033595;28;20202;-58
2021/05/16 03:57:39;;;;;;;9.43;3.58;;;;;;;;;;5033964;28;20455;-57
2021/05/16 04:00:07;;;;;;;5.73;3.40;;;;;;;;;;5033774;28;20218;-58
2021/05/16 04:02:33;;;;;;;5.00;4.40;;;;;;;;;;5033518;28;20452;-57
2021/05/16 04:08:06;;;;;;;6.67;3.40;;;;;;;;;;5111868;27;20544;-57
2021/05/16 04:10:33;;;;;;;4.87;3.67;;;;;;;;;;5111339;28;20828;-56
2021/05/16 04:12:59;;;;;;;3.70;3.40;;;;;;;;;;5111077;28;20441;-56
2021/05/16 04:15:26;;;;;;;7.40;3.37;;;;;;;;;;5111371;28;20449;-56
2021/05/16 04:17:53;;;;;;;4.80;3.27;;;;;;;;;;5111292;28;20440;-56
2021/05/16 04:20:20;;;;;;;10.10;4.20;;;;;;;;;;5111275;28;20511;-57
2021/05/16 04:22:46;;;;;;;6.27;4.10;;;;;;;;;;5110819;28;20453;-57
2021/05/16 04:25:14;;;;;;;5.43;4.10;;;;;;;;;;5111091;28;20554;-57
2021/05/16 04:27:41;;;;;;;6.20;4.00;;;;;;;;;;5111819;28;20485;-57
2021/05/16 04:30:09;;;;;;;4.97;4.50;;;;;;;;;;5110564;28;20487;-57
2021/05/16 04:32:35;;;;;;;7.23;4.60;;;;;;;;;;5110934;28;20446;-57
2021/05/16 04:35:02;;;;;;;5.47;4.40;;;;;;;;;;5110864;28;20442;-56
2021/05/16 04:37:29;;;;;;;6.70;4.87;;;;;;;;;;5111718;28;20438;-58
2021/05/16 04:39:56;;;;;;;6.50;5.03;;;;;;;;;;5110684;28;20466;-57
2021/05/16 04:42:23;;;;;;;9.00;4.67;;;;;;;;;;5110520;28;20934;-58
2021/05/16 04:44:50;;;;;;;10.00;4.83;;;;;;;;;;5110676;28;20449;-58
2021/05/16 04:47:17;;;;;;;5.57;4.97;;;;;;;;;;5110218;28;20871;-58
2021/05/16 04:49:43;;;;;;;5.93;4.63;;;;;;;;;;5110205;28;20451;-58
2021/05/16 04:52:10;;;;;;;9.47;4.83;;;;;;;;;;5110208;28;20938;-58
2021/05/16 04:54:37;;;;;;;6.73;4.07;;;;;;;;;;5110398;28;20446;-58
2021/05/16 04:57:04;;;;;;;9.83;3.87;;;;;;;;;;5110347;28;20453;-58
2021/05/16 04:59:31;;;;;;;9.83;4.23;;;;;;;;;;5109890;28;20444;-57
2021/05/16 05:01:58;;;;;;;6.00;4.60;;;;;;;;;;5110268;28;20448;-58
2021/05/16 05:04:25;;;;;;;6.70;4.60;;;;;;;;;;5110444;28;20447;-58
2021/05/16 05:06:52;;;;;;;7.80;4.00;;;;;;;;;;5109856;28;20491;-58
2021/05/16 05:09:19;;;;;;;7.27;4.87;;;;;;;;;;5109825;28;20445;-58
2021/05/16 05:11:47;;;;;;;6.43;4.50;;;;;;;;;;5110079;28;20471;-58
2021/05/16 05:14:13;;;;;;;10.03;5.00;;;;;;;;;;5110057;28;20439;-58
2021/05/16 05:16:41;;;;;;;8.90;4.70;;;;;;;;;;5110068;28;20449;-58
2021/05/16 05:19:08;;;;;;;11.50;5.70;;;;;;;;;;5098239;28;20444;-58
2021/05/16 05:21:34;;;;;;;7.60;5.23;;;;;;;;;;5096282;28;20468;-58
2021/05/16 05:24:01;;;;;;;7.47;5.73;;;;;;;;;;5096345;28;20452;-58
2021/05/16 05:26:28;;;;;;;7.83;5.83;;;;;;;;;;5096145;28;20479;-58
2021/05/16 05:28:54;;;;;;;9.27;5.00;;;;;;;;;;5096209;28;20452;-58
2021/05/16 05:31:21;;;;;;;10.90;5.93;;;;;;;;;;5095820;28;20494;-58
2021/05/16 05:33:49;;;;;;;6.67;5.27;;;;;;;;;;5095850;28;20499;-58
2021/05/16 05:36:16;;;;;;;8.10;5.13;;;;;;;;;;5096042;28;20525;-58
2021/05/16 05:38:42;;;;;;;9.40;5.77;;;;;;;;;;5096013;28;20494;-58
2021/05/16 05:41:09;;;;;;;13.30;5.50;;;;;;;;;;5096135;28;20471;-58
2021/05/16 05:43:36;;;;;;;7.03;4.63;;;;;;;;;;5096075;28;20532;-57
2021/05/16 05:46:02;;;;;;;7.77;4.67;;;;;;;;;;5095907;28;20470;-57
2021/05/16 05:48:29;;;;;;;10.73;5.40;;;;;;;;;;5095917;28;20443;-57
2021/05/16 05:50:57;;;;;;;8.00;5.70;;;;;;;;;;5095888;28;20493;-57
2021/05/16 05:53:24;;;;;;;8.17;5.67;;;;;;;;;;5095907;28;20500;-58
2021/05/16 05:55:51;;;;;;;8.07;5.23;;;;;;;;;;5095841;28;20443;-58
2021/05/16 05:58:18;;;;;;;10.43;5.43;;;;;;;;;;5096502;28;20508;-58
2021/05/16 06:00:44;;;;;;;8.50;5.70;;;;;;;;;;5095612;28;20518;-57
2021/05/16 06:03:11;;;;;;;10.63;5.80;;;;;;;;;;5095595;28;20523;-56
2021/05/16 06:05:38;;;;;;;8.40;5.87;;;;;;;;;;5095543;28;20474;-56
2021/05/16 06:08:06;;;;;;;7.50;5.47;;;;;;;;;;5095474;28;20827;-56
2021/05/16 06:10:32;;;;;;;11.40;4.60;;;;;;;;;;5095325;28;20467;-56
2021/05/16 06:12:59;;;;;;;8.20;5.00;;;;;;;;;;5095290;28;20443;-56
2021/05/16 06:15:26;;;;;;;7.57;4.60;;;;;;;;;;5095641;28;20497;-57
2021/05/16 06:17:53;;;;;;;11.43;5.80;;;;;;;;;;5095037;28;20985;-56
2021/05/16 06:20:20;;;;;;;10.30;5.40;;;;;;;;;;5095044;28;20469;-56
2021/05/16 06:22:46;;;;;;;8.80;4.23;;;;;;;;;;5095208;28;20440;-57
2021/05/16 06:25:15;;;;;;;9.40;4.80;;;;;;;;;;5095550;28;20441;-58
2021/05/16 06:27:42;;;;;;;7.20;4.60;;;;;;;;;;5095279;28;20480;-57
2021/05/16 06:30:10;;;;;;;7.53;4.07;;;;;;;;;;5094110;28;20482;-57
2021/05/16 06:32:37;;;;;;;9.17;4.20;;;;;;;;;;5095300;28;20503;-57
2021/05/16 06:35:05;;;;;;;8.67;4.10;;;;;;;;;;5094739;28;20450;-57
2021/05/16 06:37:31;;;;;;;8.73;4.20;;;;;;;;;;5095697;28;20796;-57
2021/05/16 06:39:59;;;;;;;5.83;4.10;;;;;;;;;;5094491;28;20826;-57
2021/05/16 06:42:27;;;;;;;4.40;3.80;;;;;;;;;;5094764;28;20498;-57
2021/05/16 06:44:54;;;;;;;9.20;4.50;;;;;;;;;;5094828;28;20454;-55
2021/05/16 06:47:21;;;;;;;4.10;3.60;;;;;;;;;;5094614;28;20996;-57
2021/05/16 06:49:50;;;;;;;8.77;4.07;;;;;;;;;;5095435;28;20449;-58
2021/05/16 06:52:17;;;;;;;6.67;3.50;;;;;;;;;;5095254;28;20437;-57
2021/05/16 06:54:44;;;;;;;11.87;4.50;;;;;;;;;;5094675;28;20946;-58
2021/05/16 06:57:10;;;;;;;7.70;4.00;;;;;;;;;;5095090;28;20436;-58
2021/05/16 06:59:38;;;;;;;11.77;4.57;;;;;;;;;;5094814;28;20442;-57
2021/05/16 07:02:05;;;;;;;9.97;3.83;;;;;;;;;;5094565;28;20863;-58
2021/05/16 07:04:31;;;;;;;8.30;4.00;;;;;;;;;;5094427;28;20960;-59
2021/05/16 07:06:58;;;;;;;9.70;3.90;;;;;;;;;;5094887;28;21035;-59
2021/05/16 07:09:25;;;;;;;9.17;3.90;;;;;;;;;;5095282;28;20854;-59
2021/05/16 07:11:52;;;;;;;12.23;4.77;;;;;;;;;;5096229;28;21000;-59
2021/05/16 07:14:19;;;;;;;9.60;4.77;;;;;;;;;;5095268;28;20445;-58
2021/05/16 07:16:46;;;;;;;12.67;4.50;;;;;;;;;;5094143;28;20446;-59
2021/05/16 07:19:14;;;;;;;6.77;4.50;;;;;;;;;;5093959;28;20457;-59
2021/05/16 07:21:41;;;;;;;8.23;3.73;;;;;;;;;;5093971;28;20527;-59
2021/05/16 07:24:08;;;;;;;10.23;4.53;;;;;;;;;;5093991;28;20487;-59
2021/05/16 07:26:35;;;;;;;7.03;4.27;;;;;;;;;;5093661;28;20869;-59
2021/05/16 07:29:02;;;;;;;7.17;4.83;;;;;;;;;;5093713;28;20442;-59
2021/05/16 07:31:29;;;;;;;8.40;3.20;;;;;;;;;;5093820;28;20849;-59
2021/05/16 07:33:56;;;;;;;10.47;4.50;;;;;;;;;;5093727;28;20834;-59
2021/05/16 07:36:23;;;;;;;13.53;4.80;;;;;;;;;;5093458;28;20445;-59
2021/05/16 07:38:50;;;;;;;7.83;4.43;;;;;;;;;;5093682;28;20458;-59
2021/05/16 07:41:16;;;;;;;9.20;4.63;;;;;;;;;;5093133;28;20472;-59
2021/05/16 07:43:43;;;;;;;11.60;5.23;;;;;;;;;;5093294;28;20935;-59
2021/05/16 07:46:10;;;;;;;10.70;5.20;;;;;;;;;;5093176;28;20971;-60
2021/05/16 07:48:37;;;;;;;13.20;5.50;;;;;;;;;;5093324;28;21005;-59
2021/05/16 07:51:05;;;;;;;8.23;4.87;;;;;;;;;;5093172;28;20464;-59
2021/05/16 07:53:32;;;;;;;12.87;6.30;;;;;;;;;;5093486;28;20445;-59
2021/05/16 07:55:58;;;;;;;9.87;5.90;;;;;;;;;;5093574;28;20445;-59
2021/05/16 07:58:25;;;;;;;17.13;5.83;;;;;;;;;;5094110;28;20443;-58
2021/05/16 08:00:52;;;;;;;11.37;5.80;;;;;;;;;;5093490;28;20464;-58
2021/05/16 08:03:18;;;;;;;15.57;7.10;;;;;;;;;;5093383;28;20476;-59
2021/05/16 08:05:45;;;;;;;10.10;5.30;;;;;;;;;;5093317;28;20829;-58
2021/05/16 08:08:13;;;;;;;9.10;5.57;;;;;;;;;;5093437;28;20889;-60
2021/05/16 08:10:40;;;;;;;10.60;5.67;;;;;;;;;;5093289;28;20468;-59
2021/05/16 08:13:07;;;;;;;10.40;6.07;;;;;;;;;;5093470;28;20442;-58
2021/05/16 08:15:34;;;;;;;11.53;6.30;;;;;;;;;;5093079;28;20457;-60
2021/05/16 08:18:04;;;;;;;8.97;5.47;;;;;;;;;;5093271;28;20442;-60
2021/05/16 08:20:31;;;;;;;14.83;5.63;;;;;;;;;;5092833;28;20473;-59
2021/05/16 08:22:57;;;;;;;7.10;4.53;;;;;;;;;;5092899;28;20802;-59
2021/05/16 08:25:25;;;;;;;10.33;4.67;;;;;;;;;;5093133;28;20801;-60
2021/05/16 08:27:53;;;;;;;12.27;5.10;;;;;;;;;;5092967;28;20456;-60
2021/05/16 08:30:20;;;;;;;9.67;5.00;;;;;;;;;;5092695;28;20231;-59
2021/05/16 08:32:47;;;;;;;9.20;4.80;;;;;;;;;;5093150;28;20454;-59
2021/05/16 08:35:14;;;;;;;10.57;4.40;;;;;;;;;;5093101;28;20458;-60
2021/05/16 08:37:42;;;;;;;6.93;3.60;;;;;;;;;;5093156;28;20442;-59
2021/05/16 08:40:09;;;;;;;7.50;3.23;;;;;;;;;;5092552;28;21042;-60
2021/05/16 08:42:37;;;;;;;6.77;3.60;;;;;;;;;;5093067;28;20438;-60
2021/05/16 08:45:08;;;;;;;7.67;3.17;;;;;;;;;;5092961;28;20503;-60
2021/05/16 08:47:35;;;;;;;7.83;3.93;;;;;;;;;;5092821;28;20966;-58
2021/05/16 08:50:02;;;;;;;7.70;4.00;;;;;;;;;;5093031;28;20515;-61
2021/05/16 08:52:28;;;;;;;11.20;3.60;;;;;;;;;;5092630;28;20955;-60
2021/05/16 08:54:55;;;;;;;5.80;3.13;;;;;;;;;;5096175;28;20495;-60
2021/05/16 08:57:23;;;;;;;11.00;4.40;;;;;;;;;;5096602;28;20997;-59
2021/05/16 09:00:20;;;;;;;7.43;3.20;;;;;;;;;;5096092;28;20485;-58
2021/05/16 09:03:00;;;;;;;12.40;3.60;;;;;;;;;;5034360;28;20496;-59
2021/05/16 09:05:27;;;;;;;9.20;2.60;;;;;;;;;;5088506;28;20500;-59
2021/05/16 09:07:59;;;;;;;10.10;3.10;;;;;;;;;;5096091;28;20480;-59
2021/05/16 09:10:26;;;;;;;6.97;2.67;;;;;;;;;;5096724;28;20576;-59
2021/05/16 09:12:53;;;;;;;7.83;2.47;;;;;;;;;;5096398;28;20452;-60
2021/05/16 09:15:21;;;;;;;5.03;2.60;;;;;;;;;;5098086;22;20491;-61
2021/05/16 09:17:53;;;;;;;7.43;2.50;;;;;;;;;;5036101;28;20550;-62
2021/05/16 09:20:24;;;;;;;6.90;2.80;;;;;;;;;;5035892;28;20924;-61
2021/05/16 09:22:51;;;;;;;4.57;2.33;;;;;;;;;;5035915;28;20437;-61
2021/05/16 09:25:19;;;;;;;6.27;2.13;;;;;;;;;;5036023;28;20460;-62
2021/05/16 09:27:46;;;;;;;6.07;2.60;;;;;;;;;;5035881;28;20468;-62
2021/05/16 09:30:37;;;;;;;7.03;2.60;;;;;;;;;;5036361;28;20453;-62
2021/05/16 09:33:04;;;;;;;8.10;2.50;;;;;;;;;;5036166;28;20490;-62
2021/05/16 09:35:42;;;;;;;5.80;2.27;;;;;;;;;;5036111;28;20465;-61
2021/05/16 09:38:10;;;;;;;6.90;2.37;;;;;;;;;;5036043;28;20425;-61
2021/05/16 09:40:40;;;;;;;8.03;2.10;;;;;;;;;;5035630;28;20453;-61
2021/05/16 09:43:11;;;;;;;6.23;2.50;;;;;;;;;;5035776;28;20453;-62
2021/05/16 09:45:42;;;;;;;4.73;2.37;;;;;;;;;;5035749;28;20881;-63
2021/05/16 09:48:19;;;;;;;5.70;1.93;;;;;;;;;;5035305;28;20474;-62
2021/05/16 09:51:03;;;;;;;5.90;1.97;;;;;;;;;;5035637;28;20448;-61
2021/05/16 09:53:30;;;;;;;7.30;2.27;;;;;;;;;;5036696;28;20437;-62
2021/05/16 09:56:13;;;;;;;5.90;2.00;;;;;;;;;;5042356;28;20467;-63
2021/05/16 09:58:39;;;;;;;6.30;2.20;;;;;;;;;;5041243;28;20425;-61
2021/05/16 10:01:06;;;;;;;9.40;1.87;;;;;;;;;;5037171;28;20452;-62
2021/05/16 10:03:33;;;;;;;9.27;2.27;;;;;;;;;;5036714;28;20443;-61
2021/05/16 10:06:00;;;;;;;5.70;2.20;;;;;;;;;;5036029;28;20464;-61
2021/05/16 10:08:28;;;;;;;4.80;1.80;;;;;;;;;;5035145;28;20474;-62
2021/05/16 10:10:54;;;;;;;5.23;2.20;;;;;;;;;;5035035;28;20449;-61
2021/05/16 10:13:23;;;;;;;3.53;1.60;;;;;;;;;;5034898;28;20455;-63
2021/05/16 10:15:51;;;;;;;4.73;1.73;;;;;;;;;;5034561;28;20525;-62
2021/05/16 10:18:18;;;;;;;3.97;2.10;;;;;;;;;;5034560;28;20462;-61
2021/05/16 10:20:45;;;;;;;6.17;2.40;;;;;;;;;;5035157;28;20445;-62
2021/05/16 10:23:13;;;;;;;5.93;1.70;;;;;;;;;;5034983;28;20441;-62
2021/05/16 10:25:41;;;;;;;5.57;2.27;;;;;;;;;;5034585;28;20890;-60
2021/05/16 10:28:08;;;;;;;6.57;2.40;;;;;;;;;;5034852;28;20535;-62
2021/05/16 10:30:35;;;;;;;5.13;2.20;;;;;;;;;;5034578;28;20440;-62
2021/05/16 10:33:02;;;;;;;3.77;1.70;;;;;;;;;;5034858;28;20445;-62
2021/05/16 10:35:47;;;;;;;6.60;2.90;;;;;;;;;;5034628;28;20471;-62
2021/05/16 10:38:32;;;;;;;4.83;1.40;;;;;;;;;;5034488;28;20521;-62
2021/05/16 10:41:14;;;;;;;4.07;1.60;;;;;;;;;;5034845;28;20437;-63
2021/05/16 10:43:41;;;;;;;3.53;1.70;;;;;;;;;;5034996;28;20573;-62
2021/05/16 10:46:22;;;;;;;6.43;1.77;;;;;;;;;;5034859;28;20820;-61
2021/05/16 10:48:49;;;;;;;3.53;1.80;;;;;;;;;;5034374;28;20444;-61
2021/05/16 10:51:27;;;;;;;3.40;1.70;;;;;;;;;;5035105;28;20454;-62
2021/05/16 10:53:54;;;;;;;4.33;1.60;;;;;;;;;;5034763;28;20477;-62
2021/05/16 10:56:22;;;;;;;4.10;1.60;;;;;;;;;;5035894;28;20473;-62
2021/05/16 10:58:50;;;;;;;6.33;2.20;;;;;;;;;;5035405;28;20464;-61
2021/05/16 11:01:18;;;;;;;4.33;1.37;;;;;;;;;;5035836;28;20456;-63
2021/05/16 11:03:46;;;;;;;3.43;1.53;;;;;;;;;;5034563;28;20451;-62
2021/05/16 11:06:13;;;;;;;5.20;1.80;;;;;;;;;;5034004;28;20565;-62
2021/05/16 11:09:10;;;;;;;5.20;2.03;;;;;;;;;;5034188;28;20523;-62
2021/05/16 11:11:52;;;;;;;4.73;1.40;;;;;;;;;;5033746;28;20425;-62
2021/05/16 11:14:20;;;;;;;4.30;1.83;;;;;;;;;;5030944;28;20453;-61
2021/05/16 11:16:51;;;;;;;6.67;2.00;;;;;;;;;;5032829;28;20969;-61
2021/05/16 11:19:20;;;;;;;4.30;2.00;;;;;;;;;;5033924;28;20846;-62
2021/05/16 11:21:47;;;;;;;7.13;1.73;;;;;;;;;;5033856;28;20813;-62
2021/05/16 11:24:15;;;;;;;3.33;1.50;;;;;;;;;;5033829;28;20452;-61
2021/05/16 11:26:42;;;;;;;6.60;1.60;;;;;;;;;;5033561;28;20537;-62
2021/05/16 11:29:10;;;;;;;5.20;1.80;;;;;;;;;;5033747;28;20475;-62
2021/05/16 11:31:38;;;;;;;5.37;1.80;;;;;;;;;;5033410;28;20484;-61
2021/05/16 11:34:06;;;;;;;6.70;1.93;;;;;;;;;;5033631;28;20475;-62
2021/05/16 11:36:34;;;;;;;1.93;1.50;;;;;;;;;;5033605;28;20482;-62
2021/05/16 11:39:01;;;;;;;5.77;1.70;;;;;;;;;;5033279;28;20449;-62
2021/05/16 11:41:30;;;;;;;4.10;1.80;;;;;;;;;;5033340;28;21010;-62
2021/05/16 11:43:57;;;;;;;4.27;1.70;;;;;;;;;;5032925;28;20456;-62
2021/05/16 11:46:27;;;;;;;6.13;2.37;;;;;;;;;;5032751;28;20466;-62
2021/05/16 11:48:55;;;;;;;3.57;1.20;;;;;;;;;;5032889;28;20462;-63
2021/05/16 11:51:23;;;;;;;13.27;1.90;;;;;;;;;;5032805;28;20956;-62
2021/05/16 11:53:53;;;;;;;4.30;1.83;;;;;;;;;;5033267;28;20443;-62
2021/05/16 11:56:21;;;;;;;3.60;1.80;;;;;;;;;;5033150;28;20511;-63
2021/05/16 11:58:48;;;;;;;4.67;1.60;;;;;;;;;;5034143;28;20453;-62
2021/05/16 12:01:15;;;;;;;4.17;1.50;;;;;;;;;;5032900;28;20820;-60
2021/05/16 12:03:52;;;;;;;4.33;1.80;;;;;;;;;;5033088;28;20451;-63
2021/05/16 12:06:20;;;;;;;6.73;2.23;;;;;;;;;;5033046;28;20471;-62
2021/05/16 12:08:57;;;;;;;4.10;1.40;;;;;;;;;;5032843;28;20482;-63
2021/05/16 12:11:24;;;;;;;5.97;1.60;;;;;;;;;;5032833;28;20442;-63
2021/05/16 12:13:51;;;;;;;3.00;1.20;;;;;;;;;;5037682;28;20457;-62
2021/05/16 12:16:19;;;;;;;5.13;1.40;;;;;;;;;;5038497;28;20484;-63
2021/05/16 12:18:46;;;;;;;3.43;1.90;;;;;;;;;;5033059;28;20436;-63
2021/05/16 12:21:13;;;;;;;2.40;1.40;;;;;;;;;;5033166;28;20455;-62
2021/05/16 12:23:49;;;;;;;5.73;1.90;;;;;;;;;;5033250;28;20450;-63
2021/05/16 12:26:16;;;;;;;6.03;1.87;;;;;;;;;;5033091;28;20489;-62
2021/05/16 12:28:43;;;;;;;4.70;1.70;;;;;;;;;;5034859;28;20481;-63
2021/05/16 12:31:10;;;;;;;4.77;1.70;;;;;;;;;;5036973;28;20480;-61
2021/05/16 12:33:37;;;;;;;3.93;1.60;;;;;;;;;;5036613;28;20450;-63
2021/05/16 12:36:04;;;;;;;2.87;1.57;;;;;;;;;;5036794;28;20476;-62
2021/05/16 12:38:41;;;;;;;4.30;2.33;;;;;;;;;;5036488;28;20445;-61
2021/05/16 12:41:15;;;;;;;5.10;1.60;;;;;;;;;;5036827;28;20433;-63
2021/05/16 12:43:42;;;;;;;5.47;2.50;;;;;;;;;;5036662;28;20491;-61
2021/05/16 12:46:09;;;;;;;4.30;1.53;;;;;;;;;;5036412;28;21049;-62
2021/05/16 12:48:36;;;;;;;3.97;1.50;;;;;;;;;;5036560;28;20850;-62
2021/05/16 12:51:04;;;;;;;2.73;1.37;;;;;;;;;;5036659;28;20456;-61
2021/05/16 12:53:34;;;;;;;4.33;1.53;;;;;;;;;;5036627;28;20467;-62
2021/05/16 12:56:12;;;;;;;3.80;1.20;;;;;;;;;;5037161;28;20981;-64
2021/05/16 12:58:41;;;;;;;2.40;0.97;;;;;;;;;;5037093;28;20796;-61
2021/05/16 13:01:08;;;;;;;1.67;0.80;;;;;;;;;;5036507;28;20452;-61
2021/05/16 13:03:36;;;;;;;5.60;1.30;;;;;;;;;;5036400;28;20468;-62
2021/05/16 13:06:04;;;;;;;2.20;1.00;;;;;;;;;;5036592;28;20464;-61
2021/05/16 13:08:34;;;;;;;3.20;1.00;;;;;;;;;;5036468;28;20472;-60
2021/05/16 13:11:01;;;;;;;3.60;1.60;;;;;;;;;;5036581;28;20468;-62
2021/05/16 13:13:38;;;;;;;1.87;1.10;;;;;;;;;;5035999;28;20441;-62
2021/05/16 13:16:06;;;;;;;2.03;0.90;;;;;;;;;;5036901;28;20594;-62
2021/05/16 13:18:33;;;;;;;2.33;1.07;;;;;;;;;;5036918;28;20447;-62
2021/05/16 13:21:15;;;;;;;3.13;1.53;;;;;;;;;;5036554;28;20504;-61
2021/05/16 13:23:42;;;;;;;1.93;1.17;;;;;;;;;;5036644;28;20447;-61
2021/05/16 13:26:09;;;;;;;1.50;0.90;;;;;;;;;;5036248;28;20472;-62
2021/05/16 13:28:38;;;;;;;1.67;0.70;;;;;;;;;;5036027;28;20851;-62
2021/05/16 13:31:06;;;;;;;2.03;1.00;;;;;;;;;;5037074;28;20444;-62
2021/05/16 13:33:34;;;;;;;1.60;1.50;;;;;;;;;;5036569;28;20457;-61
2021/05/16 13:36:01;;;;;;;3.37;1.10;;;;;;;;;;5037242;28;20514;-61
2021/05/16 13:38:28;;;;;;;2.43;0.93;;;;;;;;;;5037423;28;20690;-61
2021/05/16 13:40:55;;;;;;;1.37;0.93;;;;;;;;;;5039035;28;20562;-61
2021/05/16 13:43:22;;;;;;;2.50;0.80;;;;;;;;;;5036656;28;20596;-62
2021/05/16 13:45:49;;;;;;;1.47;0.80;;;;;;;;;;5035288;28;20972;-62
2021/05/16 13:48:16;;;;;;;1.53;0.90;;;;;;;;;;5035587;28;20472;-61
2021/05/16 13:50:43;;;;;;;2.00;1.80;;;;;;;;;;5035893;28;20449;-56
2021/05/16 13:53:10;;;;;;;1.00;0.60;;;;;;;;;;5036345;28;20506;-58
2021/05/16 13:55:37;;;;;;;10.23;8.60;;;;;;;;;;5035423;28;20477;-58
2021/05/16 13:58:04;;;;;;;1.00;0.63;;;;;;;;;;5035042;28;20446;-58
2021/05/16 14:00:31;;;;;;;7.87;6.97;;;;;;;;;;5035066;28;20982;-58
2021/05/16 14:02:59;;;;;;;2.93;2.13;;;;;;;;;;5035031;28;20457;-57
2021/05/16 14:05:26;;;;;;;3.43;0.90;;;;;;;;;;5034721;28;20965;-57
2021/05/16 14:07:53;;;;;;;1.20;0.70;;;;;;;;;;5034576;28;21074;-60
2021/05/16 14:10:20;;;;;;;1.50;0.77;;;;;;;;;;5034544;28;20445;-58
2021/05/16 14:12:47;;;;;;;3.23;0.90;;;;;;;;;;5034681;28;20448;-59
2021/05/16 14:15:14;;;;;;;2.10;0.70;;;;;;;;;;5033964;28;20460;-58
2021/05/16 14:17:41;;;;;;;2.07;1.00;;;;;;;;;;5034726;28;20252;-60
2021/05/16 14:20:10;;;;;;;1.10;0.80;;;;;;;;;;5034487;28;20974;-60
2021/05/16 14:22:37;;;;;;;1.20;0.97;;;;;;;;;;5034710;28;20801;-60
2021/05/16 14:25:05;;;;;;;1.83;0.97;;;;;;;;;;5034597;28;21031;-59
2021/05/16 14:27:33;;;;;;;2.03;0.90;;;;;;;;;;5037743;28;20525;-59
2021/05/16 14:30:00;;;;;;;2.50;1.20;;;;;;;;;;5039373;28;20463;-59
2021/05/16 14:32:27;;;;;;;2.43;1.30;;;;;;;;;;5035093;28;20445;-59
2021/05/16 14:34:54;;;;;;;3.33;1.20;;;;;;;;;;5035012;28;20815;-59
2021/05/16 14:37:22;;;;;;;4.30;2.13;;;;;;;;;;5034553;28;20816;-58
2021/05/16 14:39:49;;;;;;;2.77;1.63;;;;;;;;;;5034648;28;20453;-58
2021/05/16 14:42:16;;;;;;;6.47;2.10;;;;;;;;;;5034668;28;20528;-58
2021/05/16 14:44:43;;;;;;;3.40;1.87;;;;;;;;;;5034624;28;20972;-59
2021/05/16 14:47:10;;;;;;;3.10;1.60;;;;;;;;;;5034489;28;20544;-59
2021/05/16 14:49:36;;;;;;;4.50;2.17;;;;;;;;;;5034384;28;20465;-58